sensor_id;sensor_type;location;lat;lon;timestamp;temperature;humidity
12704;DHT22;6416;52.182;7.650;2023-12-20T00:02:20;10.20;99.30
12704;DHT22;6416;52.182;7.650;2023-12-20T00:04:46;10.20;99.20
12704;DHT22;6416;52.182;7.650;2023-12-20T00:07:11;10.20;99.20
12704;DHT22;6416;52.182;7.650;2023-12-20T00:09:37;10.10;99.30
12704;DHT22;6416;52.182;7.650;2023-12-20T00:12:02;10.10;99.60
12704;DHT22;6416;52.182;7.650;2023-12-20T00:14:28;10.10;99.50
12704;DHT22;6416;52.182;7.650;2023-12-20T00:16:53;10.20;99.90
12704;DHT22;6416;52.182;7.650;2023-12-20T00:19:19;10.20;99.70
12704;DHT22;6416;52.182;7.650;2023-12-20T00:21:44;10.20;99.70
12704;DHT22;6416;52.182;7.650;2023-12-20T00:24:09;10.20;99.80
12704;DHT22;6416;52.182;7.650;2023-12-20T00:26:35;10.20;99.90
12704;DHT22;6416;52.182;7.650;2023-12-20T00:29:00;10.20;99.90
12704;DHT22;6416;52.182;7.650;2023-12-20T00:31:26;10.20;99.90
12704;DHT22;6416;52.182;7.650;2023-12-20T00:33:51;10.20;99.90
12704;DHT22;6416;52.182;7.650;2023-12-20T00:36:17;10.20;99.90
12704;DHT22;6416;52.182;7.650;2023-12-20T00:38:42;10.30;99.90
12704;DHT22;6416;52.182;7.650;2023-12-20T00:41:08;10.30;99.90
12704;DHT22;6416;52.182;7.650;2023-12-20T00:43:33;10.30;99.90
12704;DHT22;6416;52.182;7.650;2023-12-20T00:45:59;10.30;99.90
12704;DHT22;6416;52.182;7.650;2023-12-20T00:48:24;10.30;99.90
12704;DHT22;6416;52.182;7.650;2023-12-20T00:50:49;10.30;99.80
12704;DHT22;6416;52.182;7.650;2023-12-20T00:53:15;10.30;99.50
12704;DHT22;6416;52.182;7.650;2023-12-20T00:55:40;10.30;99.20
12704;DHT22;6416;52.182;7.650;2023-12-20T00:58:06;10.20;98.70
12704;DHT22;6416;52.182;7.650;2023-12-20T01:00:31;10.20;98.50
12704;DHT22;6416;52.182;7.650;2023-12-20T01:02:57;10.10;98.30
12704;DHT22;6416;52.182;7.650;2023-12-20T01:05:22;10.10;98.10
12704;DHT22;6416;52.182;7.650;2023-12-20T01:07:48;10.00;97.80
12704;DHT22;6416;52.182;7.650;2023-12-20T01:10:13;10.00;97.70
12704;DHT22;6416;52.182;7.650;2023-12-20T01:12:39;9.90;97.90
12704;DHT22;6416;52.182;7.650;2023-12-20T01:15:04;9.90;97.90
12704;DHT22;6416;52.182;7.650;2023-12-20T01:17:30;9.80;97.80
12704;DHT22;6416;52.182;7.650;2023-12-20T01:19:55;9.80;97.90
12704;DHT22;6416;52.182;7.650;2023-12-20T01:22:21;9.70;98.00
12704;DHT22;6416;52.182;7.650;2023-12-20T01:24:46;9.70;98.20
12704;DHT22;6416;52.182;7.650;2023-12-20T01:27:12;9.60;98.00
12704;DHT22;6416;52.182;7.650;2023-12-20T01:29:37;9.60;98.00
12704;DHT22;6416;52.182;7.650;2023-12-20T01:32:03;9.60;98.00
12704;DHT22;6416;52.182;7.650;2023-12-20T01:34:28;9.50;97.90
12704;DHT22;6416;52.182;7.650;2023-12-20T01:36:54;9.50;97.80
12704;DHT22;6416;52.182;7.650;2023-12-20T01:39:19;9.50;97.80
12704;DHT22;6416;52.182;7.650;2023-12-20T01:41:45;9.40;97.80
12704;DHT22;6416;52.182;7.650;2023-12-20T01:44:10;9.40;97.70
12704;DHT22;6416;52.182;7.650;2023-12-20T01:46:36;9.40;97.60
12704;DHT22;6416;52.182;7.650;2023-12-20T01:49:02;9.30;97.50
12704;DHT22;6416;52.182;7.650;2023-12-20T01:51:27;9.30;97.40
12704;DHT22;6416;52.182;7.650;2023-12-20T01:53:55;9.20;97.40
12704;DHT22;6416;52.182;7.650;2023-12-20T01:56:21;9.20;97.40
12704;DHT22;6416;52.182;7.650;2023-12-20T01:58:47;9.20;97.40
12704;DHT22;6416;52.182;7.650;2023-12-20T02:01:13;9.10;97.30
12704;DHT22;6416;52.182;7.650;2023-12-20T02:03:42;9.10;97.30
12704;DHT22;6416;52.182;7.650;2023-12-20T02:06:08;9.10;97.20
12704;DHT22;6416;52.182;7.650;2023-12-20T02:08:34;9.00;97.30
12704;DHT22;6416;52.182;7.650;2023-12-20T02:11:00;9.00;97.50
12704;DHT22;6416;52.182;7.650;2023-12-20T02:13:25;9.00;97.90
12704;DHT22;6416;52.182;7.650;2023-12-20T02:15:51;9.00;98.30
12704;DHT22;6416;52.182;7.650;2023-12-20T02:18:16;9.00;98.40
12704;DHT22;6416;52.182;7.650;2023-12-20T02:20:42;9.00;98.40
12704;DHT22;6416;52.182;7.650;2023-12-20T02:23:08;9.00;98.30
12704;DHT22;6416;52.182;7.650;2023-12-20T02:25:33;9.00;98.30
12704;DHT22;6416;52.182;7.650;2023-12-20T02:27:58;9.00;98.10
12704;DHT22;6416;52.182;7.650;2023-12-20T02:30:24;8.90;98.00
12704;DHT22;6416;52.182;7.650;2023-12-20T02:32:50;8.90;97.90
12704;DHT22;6416;52.182;7.650;2023-12-20T02:35:16;8.90;97.90
12704;DHT22;6416;52.182;7.650;2023-12-20T02:37:42;8.90;98.00
12704;DHT22;6416;52.182;7.650;2023-12-20T02:40:07;8.90;98.50
12704;DHT22;6416;52.182;7.650;2023-12-20T02:42:33;8.90;98.40
12704;DHT22;6416;52.182;7.650;2023-12-20T02:44:58;8.90;98.80
12704;DHT22;6416;52.182;7.650;2023-12-20T02:47:24;8.90;99.00
12704;DHT22;6416;52.182;7.650;2023-12-20T02:49:49;8.90;98.90
12704;DHT22;6416;52.182;7.650;2023-12-20T02:52:15;8.90;98.80
12704;DHT22;6416;52.182;7.650;2023-12-20T02:54:40;8.90;98.90
12704;DHT22;6416;52.182;7.650;2023-12-20T02:57:06;8.90;98.80
12704;DHT22;6416;52.182;7.650;2023-12-20T02:59:31;8.90;98.90
12704;DHT22;6416;52.182;7.650;2023-12-20T03:01:57;8.90;99.00
12704;DHT22;6416;52.182;7.650;2023-12-20T03:04:22;8.90;99.20
12704;DHT22;6416;52.182;7.650;2023-12-20T03:06:48;9.00;99.40
12704;DHT22;6416;52.182;7.650;2023-12-20T03:09:13;9.00;99.30
12704;DHT22;6416;52.182;7.650;2023-12-20T03:11:39;9.00;99.10
12704;DHT22;6416;52.182;7.650;2023-12-20T03:14:04;9.00;98.90
12704;DHT22;6416;52.182;7.650;2023-12-20T03:16:30;9.00;98.80
12704;DHT22;6416;52.182;7.650;2023-12-20T03:18:55;9.00;98.50
12704;DHT22;6416;52.182;7.650;2023-12-20T03:21:20;8.90;98.30
12704;DHT22;6416;52.182;7.650;2023-12-20T03:23:46;8.90;98.20
12704;DHT22;6416;52.182;7.650;2023-12-20T03:26:11;8.90;98.20
12704;DHT22;6416;52.182;7.650;2023-12-20T03:28:37;8.80;98.10
12704;DHT22;6416;52.182;7.650;2023-12-20T03:31:03;8.80;98.20
12704;DHT22;6416;52.182;7.650;2023-12-20T03:33:29;8.80;98.20
12704;DHT22;6416;52.182;7.650;2023-12-20T03:35:54;8.80;98.30
12704;DHT22;6416;52.182;7.650;2023-12-20T03:38:20;8.80;98.40
12704;DHT22;6416;52.182;7.650;2023-12-20T03:40:46;8.80;98.50
12704;DHT22;6416;52.182;7.650;2023-12-20T03:43:11;8.80;98.90
12704;DHT22;6416;52.182;7.650;2023-12-20T03:45:37;8.80;99.20
12704;DHT22;6416;52.182;7.650;2023-12-20T03:48:02;8.80;99.40
12704;DHT22;6416;52.182;7.650;2023-12-20T03:50:29;8.80;99.40
12704;DHT22;6416;52.182;7.650;2023-12-20T03:52:54;8.80;99.50
12704;DHT22;6416;52.182;7.650;2023-12-20T03:55:20;8.90;99.70
12704;DHT22;6416;52.182;7.650;2023-12-20T03:57:47;8.80;99.60
12704;DHT22;6416;52.182;7.650;2023-12-20T04:00:12;8.90;99.70
12704;DHT22;6416;52.182;7.650;2023-12-20T04:02:38;8.90;99.70
12704;DHT22;6416;52.182;7.650;2023-12-20T04:05:04;8.90;99.70
12704;DHT22;6416;52.182;7.650;2023-12-20T04:07:30;8.90;99.70
12704;DHT22;6416;52.182;7.650;2023-12-20T04:09:55;8.90;99.70
12704;DHT22;6416;52.182;7.650;2023-12-20T04:12:21;8.90;99.70
12704;DHT22;6416;52.182;7.650;2023-12-20T04:14:46;8.90;99.80
12704;DHT22;6416;52.182;7.650;2023-12-20T04:17:12;9.00;99.90
12704;DHT22;6416;52.182;7.650;2023-12-20T04:19:37;9.00;99.90
12704;DHT22;6416;52.182;7.650;2023-12-20T04:22:03;9.00;99.90
12704;DHT22;6416;52.182;7.650;2023-12-20T04:24:28;9.00;99.90
12704;DHT22;6416;52.182;7.650;2023-12-20T04:26:54;9.00;99.90
12704;DHT22;6416;52.182;7.650;2023-12-20T04:29:19;9.10;99.90
12704;DHT22;6416;52.182;7.650;2023-12-20T04:31:45;9.10;99.90
12704;DHT22;6416;52.182;7.650;2023-12-20T04:34:10;9.10;99.90
12704;DHT22;6416;52.182;7.650;2023-12-20T04:36:36;9.20;99.90
12704;DHT22;6416;52.182;7.650;2023-12-20T04:39:01;9.20;99.90
12704;DHT22;6416;52.182;7.650;2023-12-20T04:41:27;9.20;99.90
12704;DHT22;6416;52.182;7.650;2023-12-20T04:43:52;9.20;99.90
12704;DHT22;6416;52.182;7.650;2023-12-20T04:46:19;9.30;99.90
12704;DHT22;6416;52.182;7.650;2023-12-20T04:48:44;9.30;99.90
12704;DHT22;6416;52.182;7.650;2023-12-20T04:51:10;9.30;99.90
12704;DHT22;6416;52.182;7.650;2023-12-20T04:53:35;9.30;99.90
12704;DHT22;6416;52.182;7.650;2023-12-20T04:56:01;9.30;99.90
12704;DHT22;6416;52.182;7.650;2023-12-20T04:58:26;9.30;99.90
12704;DHT22;6416;52.182;7.650;2023-12-20T05:00:52;9.40;99.90
12704;DHT22;6416;52.182;7.650;2023-12-20T05:03:17;9.40;99.90
12704;DHT22;6416;52.182;7.650;2023-12-20T05:05:43;9.40;99.90
12704;DHT22;6416;52.182;7.650;2023-12-20T05:08:08;9.40;99.90
12704;DHT22;6416;52.182;7.650;2023-12-20T05:10:34;9.40;99.90
12704;DHT22;6416;52.182;7.650;2023-12-20T05:12:59;9.40;99.90
12704;DHT22;6416;52.182;7.650;2023-12-20T05:15:25;9.50;99.90
12704;DHT22;6416;52.182;7.650;2023-12-20T05:17:50;9.50;99.90
12704;DHT22;6416;52.182;7.650;2023-12-20T05:20:15;9.50;99.90
12704;DHT22;6416;52.182;7.650;2023-12-20T05:22:41;9.50;99.90
12704;DHT22;6416;52.182;7.650;2023-12-20T05:25:07;9.50;99.90
12704;DHT22;6416;52.182;7.650;2023-12-20T05:27:33;9.50;99.90
12704;DHT22;6416;52.182;7.650;2023-12-20T05:29:58;9.50;99.90
12704;DHT22;6416;52.182;7.650;2023-12-20T05:32:24;9.50;99.90
12704;DHT22;6416;52.182;7.650;2023-12-20T05:34:49;9.60;99.90
12704;DHT22;6416;52.182;7.650;2023-12-20T05:37:15;9.60;99.90
12704;DHT22;6416;52.182;7.650;2023-12-20T05:39:40;9.60;99.90
12704;DHT22;6416;52.182;7.650;2023-12-20T05:42:06;9.60;99.90
12704;DHT22;6416;52.182;7.650;2023-12-20T05:44:31;9.60;99.90
12704;DHT22;6416;52.182;7.650;2023-12-20T05:46:57;9.60;99.90
12704;DHT22;6416;52.182;7.650;2023-12-20T05:49:22;9.60;99.90
12704;DHT22;6416;52.182;7.650;2023-12-20T05:51:48;9.70;99.90
12704;DHT22;6416;52.182;7.650;2023-12-20T05:54:13;9.70;99.90
12704;DHT22;6416;52.182;7.650;2023-12-20T05:56:39;9.70;99.90
12704;DHT22;6416;52.182;7.650;2023-12-20T05:59:04;9.70;99.90
12704;DHT22;6416;52.182;7.650;2023-12-20T06:01:30;9.70;99.90
12704;DHT22;6416;52.182;7.650;2023-12-20T06:03:55;9.50;99.90
12704;DHT22;6416;52.182;7.650;2023-12-20T06:06:21;9.60;99.90
12704;DHT22;6416;52.182;7.650;2023-12-20T06:08:46;9.60;99.90
12704;DHT22;6416;52.182;7.650;2023-12-20T06:11:12;9.70;99.90
12704;DHT22;6416;52.182;7.650;2023-12-20T06:13:37;9.70;99.90
12704;DHT22;6416;52.182;7.650;2023-12-20T06:16:05;9.80;99.90
12704;DHT22;6416;52.182;7.650;2023-12-20T06:18:31;9.80;99.90
12704;DHT22;6416;52.182;7.650;2023-12-20T06:20:57;9.80;99.90
12704;DHT22;6416;52.182;7.650;2023-12-20T06:23:22;9.80;99.90
12704;DHT22;6416;52.182;7.650;2023-12-20T06:25:47;9.80;99.90
12704;DHT22;6416;52.182;7.650;2023-12-20T06:28:13;9.80;99.90
12704;DHT22;6416;52.182;7.650;2023-12-20T06:30:38;9.80;99.90
12704;DHT22;6416;52.182;7.650;2023-12-20T06:33:04;9.80;99.90
12704;DHT22;6416;52.182;7.650;2023-12-20T06:35:30;9.80;99.90
12704;DHT22;6416;52.182;7.650;2023-12-20T06:37:55;9.80;99.90
12704;DHT22;6416;52.182;7.650;2023-12-20T06:40:20;9.80;99.90
12704;DHT22;6416;52.182;7.650;2023-12-20T06:42:46;9.80;99.90
12704;DHT22;6416;52.182;7.650;2023-12-20T06:45:12;9.80;99.90
12704;DHT22;6416;52.182;7.650;2023-12-20T06:47:37;9.80;99.90
12704;DHT22;6416;52.182;7.650;2023-12-20T06:50:03;9.80;99.90
12704;DHT22;6416;52.182;7.650;2023-12-20T06:52:29;9.80;99.90
12704;DHT22;6416;52.182;7.650;2023-12-20T06:54:54;9.80;99.90
12704;DHT22;6416;52.182;7.650;2023-12-20T06:57:20;9.80;99.90
12704;DHT22;6416;52.182;7.650;2023-12-20T06:59:46;9.80;99.90
12704;DHT22;6416;52.182;7.650;2023-12-20T07:02:11;9.80;99.90
12704;DHT22;6416;52.182;7.650;2023-12-20T07:04:41;9.80;99.90
12704;DHT22;6416;52.182;7.650;2023-12-20T07:07:06;9.80;99.90
12704;DHT22;6416;52.182;7.650;2023-12-20T07:09:32;9.80;99.90
12704;DHT22;6416;52.182;7.650;2023-12-20T07:11:57;9.80;99.90
12704;DHT22;6416;52.182;7.650;2023-12-20T07:14:23;9.90;99.90
12704;DHT22;6416;52.182;7.650;2023-12-20T07:16:48;9.80;99.90
12704;DHT22;6416;52.182;7.650;2023-12-20T07:19:33;9.90;99.90
12704;DHT22;6416;52.182;7.650;2023-12-20T07:21:59;9.90;99.60
12704;DHT22;6416;52.182;7.650;2023-12-20T07:24:24;9.90;99.90
12704;DHT22;6416;52.182;7.650;2023-12-20T07:26:50;9.90;99.90
12704;DHT22;6416;52.182;7.650;2023-12-20T07:29:15;9.90;99.90
12704;DHT22;6416;52.182;7.650;2023-12-20T07:31:41;9.90;99.90
12704;DHT22;6416;52.182;7.650;2023-12-20T07:34:06;9.90;99.90
12704;DHT22;6416;52.182;7.650;2023-12-20T07:36:32;9.90;99.90
12704;DHT22;6416;52.182;7.650;2023-12-20T07:38:58;9.90;99.90
12704;DHT22;6416;52.182;7.650;2023-12-20T07:41:26;9.90;99.90
12704;DHT22;6416;52.182;7.650;2023-12-20T07:43:51;9.90;99.90
12704;DHT22;6416;52.182;7.650;2023-12-20T07:46:17;9.90;99.90
12704;DHT22;6416;52.182;7.650;2023-12-20T07:48:43;9.90;99.90
12704;DHT22;6416;52.182;7.650;2023-12-20T07:51:08;9.90;99.90
12704;DHT22;6416;52.182;7.650;2023-12-20T07:53:34;9.90;99.90
12704;DHT22;6416;52.182;7.650;2023-12-20T07:55:59;10.00;99.90
12704;DHT22;6416;52.182;7.650;2023-12-20T07:58:25;10.00;99.90
12704;DHT22;6416;52.182;7.650;2023-12-20T08:00:50;10.00;99.90
12704;DHT22;6416;52.182;7.650;2023-12-20T08:03:16;10.00;99.90
12704;DHT22;6416;52.182;7.650;2023-12-20T08:05:41;10.10;99.90
12704;DHT22;6416;52.182;7.650;2023-12-20T08:08:06;10.00;99.90
12704;DHT22;6416;52.182;7.650;2023-12-20T08:10:32;10.10;99.90
12704;DHT22;6416;52.182;7.650;2023-12-20T08:12:58;10.10;99.90
12704;DHT22;6416;52.182;7.650;2023-12-20T08:15:23;10.10;99.90
12704;DHT22;6416;52.182;7.650;2023-12-20T08:17:49;10.10;99.90
12704;DHT22;6416;52.182;7.650;2023-12-20T08:20:15;10.10;99.90
12704;DHT22;6416;52.182;7.650;2023-12-20T08:22:40;10.10;99.90
12704;DHT22;6416;52.182;7.650;2023-12-20T08:25:09;10.10;99.90
12704;DHT22;6416;52.182;7.650;2023-12-20T08:27:40;10.10;99.90
12704;DHT22;6416;52.182;7.650;2023-12-20T08:30:07;10.10;99.70
12704;DHT22;6416;52.182;7.650;2023-12-20T08:32:33;10.10;99.90
12704;DHT22;6416;52.182;7.650;2023-12-20T08:34:59;10.10;99.90
12704;DHT22;6416;52.182;7.650;2023-12-20T08:37:24;10.10;99.90
12704;DHT22;6416;52.182;7.650;2023-12-20T08:39:49;10.20;99.90
12704;DHT22;6416;52.182;7.650;2023-12-20T08:42:15;10.20;99.90
12704;DHT22;6416;52.182;7.650;2023-12-20T08:44:40;10.20;99.90
12704;DHT22;6416;52.182;7.650;2023-12-20T08:47:06;10.20;99.90
12704;DHT22;6416;52.182;7.650;2023-12-20T08:49:31;10.20;99.90
12704;DHT22;6416;52.182;7.650;2023-12-20T08:51:57;10.30;99.90
12704;DHT22;6416;52.182;7.650;2023-12-20T08:54:22;10.30;99.90
12704;DHT22;6416;52.182;7.650;2023-12-20T08:56:48;10.30;99.90
12704;DHT22;6416;52.182;7.650;2023-12-20T08:59:13;10.30;99.90
12704;DHT22;6416;52.182;7.650;2023-12-20T09:01:39;10.30;99.90
12704;DHT22;6416;52.182;7.650;2023-12-20T09:04:04;10.30;99.90
12704;DHT22;6416;52.182;7.650;2023-12-20T09:06:30;10.30;99.90
12704;DHT22;6416;52.182;7.650;2023-12-20T09:08:55;10.40;99.90
12704;DHT22;6416;52.182;7.650;2023-12-20T09:11:21;10.40;99.90
12704;DHT22;6416;52.182;7.650;2023-12-20T09:13:46;10.40;99.90
12704;DHT22;6416;52.182;7.650;2023-12-20T09:16:12;10.40;99.90
12704;DHT22;6416;52.182;7.650;2023-12-20T09:18:37;10.40;99.90
12704;DHT22;6416;52.182;7.650;2023-12-20T09:21:03;10.40;99.90
12704;DHT22;6416;52.182;7.650;2023-12-20T09:23:28;10.40;99.90
12704;DHT22;6416;52.182;7.650;2023-12-20T09:25:54;10.40;99.90
12704;DHT22;6416;52.182;7.650;2023-12-20T09:28:22;10.40;99.90
12704;DHT22;6416;52.182;7.650;2023-12-20T09:30:48;10.50;99.90
12704;DHT22;6416;52.182;7.650;2023-12-20T09:33:14;10.50;99.90
12704;DHT22;6416;52.182;7.650;2023-12-20T09:35:40;10.50;99.90
12704;DHT22;6416;52.182;7.650;2023-12-20T09:38:05;10.50;99.90
12704;DHT22;6416;52.182;7.650;2023-12-20T09:40:32;10.50;99.90
12704;DHT22;6416;52.182;7.650;2023-12-20T09:43:02;10.50;99.90
12704;DHT22;6416;52.182;7.650;2023-12-20T09:45:31;10.60;99.90
12704;DHT22;6416;52.182;7.650;2023-12-20T09:47:58;10.60;99.90
12704;DHT22;6416;52.182;7.650;2023-12-20T09:50:23;10.60;99.90
12704;DHT22;6416;52.182;7.650;2023-12-20T09:52:53;10.60;99.90
12704;DHT22;6416;52.182;7.650;2023-12-20T09:55:21;10.70;99.90
12704;DHT22;6416;52.182;7.650;2023-12-20T09:57:47;10.70;99.90
12704;DHT22;6416;52.182;7.650;2023-12-20T10:00:13;10.60;99.90
12704;DHT22;6416;52.182;7.650;2023-12-20T10:02:45;10.60;99.90
12704;DHT22;6416;52.182;7.650;2023-12-20T10:05:16;10.70;99.90
12704;DHT22;6416;52.182;7.650;2023-12-20T10:07:42;10.60;99.90
12704;DHT22;6416;52.182;7.650;2023-12-20T10:10:07;10.60;99.90
12704;DHT22;6416;52.182;7.650;2023-12-20T10:12:33;10.60;99.90
12704;DHT22;6416;52.182;7.650;2023-12-20T10:14:58;10.60;99.90
12704;DHT22;6416;52.182;7.650;2023-12-20T10:17:24;10.60;99.90
12704;DHT22;6416;52.182;7.650;2023-12-20T10:19:49;10.60;99.90
12704;DHT22;6416;52.182;7.650;2023-12-20T10:22:15;10.60;99.90
12704;DHT22;6416;52.182;7.650;2023-12-20T10:24:40;10.60;99.90
12704;DHT22;6416;52.182;7.650;2023-12-20T10:27:08;10.60;99.90
12704;DHT22;6416;52.182;7.650;2023-12-20T10:29:37;10.60;99.90
12704;DHT22;6416;52.182;7.650;2023-12-20T10:34:48;10.60;99.70
12704;DHT22;6416;52.182;7.650;2023-12-20T10:37:14;10.60;99.90
12704;DHT22;6416;52.182;7.650;2023-12-20T10:39:41;10.60;99.90
12704;DHT22;6416;52.182;7.650;2023-12-20T10:42:09;10.60;99.90
12704;DHT22;6416;52.182;7.650;2023-12-20T10:44:35;10.70;99.90
12704;DHT22;6416;52.182;7.650;2023-12-20T10:47:00;10.60;99.90
12704;DHT22;6416;52.182;7.650;2023-12-20T10:49:27;10.60;99.90
12704;DHT22;6416;52.182;7.650;2023-12-20T10:51:54;10.70;99.90
12704;DHT22;6416;52.182;7.650;2023-12-20T10:54:20;10.60;99.90
12704;DHT22;6416;52.182;7.650;2023-12-20T10:56:46;10.70;99.90
12704;DHT22;6416;52.182;7.650;2023-12-20T10:59:15;10.60;99.90
12704;DHT22;6416;52.182;7.650;2023-12-20T11:01:44;10.60;99.90
12704;DHT22;6416;52.182;7.650;2023-12-20T11:04:14;10.70;99.90
12704;DHT22;6416;52.182;7.650;2023-12-20T11:06:54;10.70;99.90
12704;DHT22;6416;52.182;7.650;2023-12-20T11:09:26;10.70;99.90
12704;DHT22;6416;52.182;7.650;2023-12-20T11:17:11;11.00;99.90
12704;DHT22;6416;52.182;7.650;2023-12-20T11:19:43;11.10;99.90
12704;DHT22;6416;52.182;7.650;2023-12-20T11:22:30;11.20;99.90
12704;DHT22;6416;52.182;7.650;2023-12-20T11:25:07;11.40;99.90
12704;DHT22;6416;52.182;7.650;2023-12-20T11:27:32;11.50;99.90
12704;DHT22;6416;52.182;7.650;2023-12-20T11:29:58;11.60;99.90
12704;DHT22;6416;52.182;7.650;2023-12-20T11:37:38;11.90;99.90
12704;DHT22;6416;52.182;7.650;2023-12-20T11:40:06;11.90;99.90
12704;DHT22;6416;52.182;7.650;2023-12-20T11:42:39;12.00;99.90
12704;DHT22;6416;52.182;7.650;2023-12-20T11:45:05;12.10;99.90
12704;DHT22;6416;52.182;7.650;2023-12-20T11:47:31;12.20;99.90
12704;DHT22;6416;52.182;7.650;2023-12-20T11:49:57;12.30;99.90
12704;DHT22;6416;52.182;7.650;2023-12-20T11:52:22;12.40;99.90
12704;DHT22;6416;52.182;7.650;2023-12-20T11:54:48;12.40;99.90
12704;DHT22;6416;52.182;7.650;2023-12-20T11:57:13;12.40;99.90
12704;DHT22;6416;52.182;7.650;2023-12-20T11:59:39;12.40;99.90
12704;DHT22;6416;52.182;7.650;2023-12-20T12:02:05;12.40;99.90
12704;DHT22;6416;52.182;7.650;2023-12-20T12:04:30;12.30;99.90
12704;DHT22;6416;52.182;7.650;2023-12-20T12:06:56;12.30;99.90
12704;DHT22;6416;52.182;7.650;2023-12-20T12:09:21;12.20;99.50
12704;DHT22;6416;52.182;7.650;2023-12-20T12:11:47;12.20;99.40
12704;DHT22;6416;52.182;7.650;2023-12-20T12:14:13;12.10;99.40
12704;DHT22;6416;52.182;7.650;2023-12-20T12:16:38;12.10;99.00
12704;DHT22;6416;52.182;7.650;2023-12-20T12:19:04;12.00;98.20
12704;DHT22;6416;52.182;7.650;2023-12-20T12:21:30;11.90;97.40
12704;DHT22;6416;52.182;7.650;2023-12-20T12:24:06;11.80;96.90
12704;DHT22;6416;52.182;7.650;2023-12-20T12:26:32;11.70;95.90
12704;DHT22;6416;52.182;7.650;2023-12-20T12:28:57;11.60;96.70
12704;DHT22;6416;52.182;7.650;2023-12-20T12:31:23;11.50;96.90
12704;DHT22;6416;52.182;7.650;2023-12-20T12:33:48;11.40;97.10
12704;DHT22;6416;52.182;7.650;2023-12-20T12:36:14;11.30;97.40
12704;DHT22;6416;52.182;7.650;2023-12-20T12:38:41;11.20;97.60
12704;DHT22;6416;52.182;7.650;2023-12-20T12:41:06;11.10;97.80
12704;DHT22;6416;52.182;7.650;2023-12-20T12:43:32;11.10;98.10
12704;DHT22;6416;52.182;7.650;2023-12-20T12:45:57;11.00;98.30
12704;DHT22;6416;52.182;7.650;2023-12-20T12:48:23;11.00;98.30
12704;DHT22;6416;52.182;7.650;2023-12-20T12:50:49;11.00;98.40
12704;DHT22;6416;52.182;7.650;2023-12-20T12:53:14;10.90;98.40
12704;DHT22;6416;52.182;7.650;2023-12-20T12:55:39;10.90;98.30
12704;DHT22;6416;52.182;7.650;2023-12-20T12:58:05;10.90;98.30
12704;DHT22;6416;52.182;7.650;2023-12-20T13:00:30;10.90;98.40
12704;DHT22;6416;52.182;7.650;2023-12-20T13:02:56;10.90;98.60
12704;DHT22;6416;52.182;7.650;2023-12-20T13:05:21;10.90;99.10
12704;DHT22;6416;52.182;7.650;2023-12-20T13:07:49;10.80;99.10
12704;DHT22;6416;52.182;7.650;2023-12-20T13:10:15;10.80;98.60
12704;DHT22;6416;52.182;7.650;2023-12-20T13:12:40;10.80;98.90
12704;DHT22;6416;52.182;7.650;2023-12-20T13:15:06;10.80;99.10
12704;DHT22;6416;52.182;7.650;2023-12-20T13:17:32;10.80;99.30
12704;DHT22;6416;52.182;7.650;2023-12-20T13:19:57;10.80;99.30
12704;DHT22;6416;52.182;7.650;2023-12-20T13:22:23;10.80;99.30
12704;DHT22;6416;52.182;7.650;2023-12-20T13:24:48;10.90;99.20
12704;DHT22;6416;52.182;7.650;2023-12-20T13:27:14;10.80;99.10
12704;DHT22;6416;52.182;7.650;2023-12-20T13:29:39;10.80;99.00
12704;DHT22;6416;52.182;7.650;2023-12-20T13:32:05;10.90;98.90
12704;DHT22;6416;52.182;7.650;2023-12-20T13:34:31;10.80;98.70
12704;DHT22;6416;52.182;7.650;2023-12-20T13:36:56;10.80;98.70
12704;DHT22;6416;52.182;7.650;2023-12-20T13:39:22;10.80;98.70
12704;DHT22;6416;52.182;7.650;2023-12-20T13:41:47;10.80;98.70
12704;DHT22;6416;52.182;7.650;2023-12-20T13:44:13;10.80;98.70
12704;DHT22;6416;52.182;7.650;2023-12-20T13:46:38;10.70;98.60
12704;DHT22;6416;52.182;7.650;2023-12-20T13:49:04;10.80;98.70
12704;DHT22;6416;52.182;7.650;2023-12-20T13:51:29;10.80;98.80
12704;DHT22;6416;52.182;7.650;2023-12-20T13:53:55;10.70;98.80
12704;DHT22;6416;52.182;7.650;2023-12-20T13:56:20;10.70;98.90
12704;DHT22;6416;52.182;7.650;2023-12-20T13:58:46;10.70;99.00
12704;DHT22;6416;52.182;7.650;2023-12-20T14:01:11;10.70;99.00
12704;DHT22;6416;52.182;7.650;2023-12-20T14:03:37;10.70;99.00
12704;DHT22;6416;52.182;7.650;2023-12-20T14:06:02;10.70;98.80
12704;DHT22;6416;52.182;7.650;2023-12-20T14:08:28;10.70;98.90
12704;DHT22;6416;52.182;7.650;2023-12-20T14:10:53;10.70;99.10
12704;DHT22;6416;52.182;7.650;2023-12-20T14:13:19;10.70;99.10
12704;DHT22;6416;52.182;7.650;2023-12-20T14:15:44;10.70;99.10
12704;DHT22;6416;52.182;7.650;2023-12-20T14:18:10;10.70;99.00
12704;DHT22;6416;52.182;7.650;2023-12-20T14:20:36;10.70;98.90
12704;DHT22;6416;52.182;7.650;2023-12-20T14:23:03;10.70;98.80
12704;DHT22;6416;52.182;7.650;2023-12-20T14:25:29;10.70;98.80
12704;DHT22;6416;52.182;7.650;2023-12-20T14:27:54;10.70;98.70
12704;DHT22;6416;52.182;7.650;2023-12-20T14:30:20;10.70;98.70
12704;DHT22;6416;52.182;7.650;2023-12-20T14:32:45;10.70;98.70
12704;DHT22;6416;52.182;7.650;2023-12-20T14:35:11;10.70;98.70
12704;DHT22;6416;52.182;7.650;2023-12-20T14:37:36;10.70;98.70
12704;DHT22;6416;52.182;7.650;2023-12-20T14:40:02;10.60;98.70
12704;DHT22;6416;52.182;7.650;2023-12-20T14:42:27;10.60;98.70
12704;DHT22;6416;52.182;7.650;2023-12-20T14:44:53;10.60;98.70
12704;DHT22;6416;52.182;7.650;2023-12-20T14:47:21;10.60;98.80
12704;DHT22;6416;52.182;7.650;2023-12-20T14:49:46;10.60;98.70
12704;DHT22;6416;52.182;7.650;2023-12-20T14:52:12;10.60;98.80
12704;DHT22;6416;52.182;7.650;2023-12-20T14:54:37;10.60;98.90
12704;DHT22;6416;52.182;7.650;2023-12-20T14:57:03;10.60;99.00
12704;DHT22;6416;52.182;7.650;2023-12-20T14:59:29;10.60;99.10
12704;DHT22;6416;52.182;7.650;2023-12-20T15:01:54;10.60;99.20
12704;DHT22;6416;52.182;7.650;2023-12-20T15:04:20;10.60;99.20
12704;DHT22;6416;52.182;7.650;2023-12-20T15:06:45;10.60;99.30
12704;DHT22;6416;52.182;7.650;2023-12-20T15:09:11;10.60;99.30
12704;DHT22;6416;52.182;7.650;2023-12-20T15:11:36;10.60;99.30
12704;DHT22;6416;52.182;7.650;2023-12-20T15:14:02;10.60;99.30
12704;DHT22;6416;52.182;7.650;2023-12-20T15:16:27;10.60;99.40
12704;DHT22;6416;52.182;7.650;2023-12-20T15:18:53;10.60;99.30
12704;DHT22;6416;52.182;7.650;2023-12-20T15:21:18;10.60;99.30
12704;DHT22;6416;52.182;7.650;2023-12-20T15:23:44;10.60;99.40
12704;DHT22;6416;52.182;7.650;2023-12-20T15:26:09;10.60;99.40
12704;DHT22;6416;52.182;7.650;2023-12-20T15:28:35;10.60;99.40
12704;DHT22;6416;52.182;7.650;2023-12-20T15:31:00;10.60;99.40
12704;DHT22;6416;52.182;7.650;2023-12-20T15:33:25;10.60;99.40
12704;DHT22;6416;52.182;7.650;2023-12-20T15:35:51;10.60;99.50
12704;DHT22;6416;52.182;7.650;2023-12-20T15:38:16;10.60;99.60
12704;DHT22;6416;52.182;7.650;2023-12-20T15:40:42;10.60;99.60
12704;DHT22;6416;52.182;7.650;2023-12-20T15:43:07;10.60;99.70
12704;DHT22;6416;52.182;7.650;2023-12-20T15:45:33;10.60;99.60
12704;DHT22;6416;52.182;7.650;2023-12-20T15:47:58;10.60;99.70
12704;DHT22;6416;52.182;7.650;2023-12-20T15:50:24;10.60;99.80
12704;DHT22;6416;52.182;7.650;2023-12-20T15:52:49;10.60;99.90
12704;DHT22;6416;52.182;7.650;2023-12-20T15:55:15;10.60;99.90
12704;DHT22;6416;52.182;7.650;2023-12-20T15:57:40;10.60;99.90